sensor_id;sensor_type;location;lat;lon;timestamp;P1;durP1;ratioP1;P2;durP2;ratioP2
15216;SDS011;7711;46.634;14.318;2023-08-21T00:02:14;18.38;;;16.60;;
15216;SDS011;7711;46.634;14.318;2023-08-21T00:04:41;19.27;;;17.48;;
15216;SDS011;7711;46.634;14.318;2023-08-21T00:07:08;19.45;;;17.45;;
15216;SDS011;7711;46.634;14.318;2023-08-21T00:09:36;19.63;;;17.73;;
15216;SDS011;7711;46.634;14.318;2023-08-21T00:12:03;18.88;;;17.08;;
15216;SDS011;7711;46.634;14.318;2023-08-21T00:14:31;19.48;;;17.60;;
15216;SDS011;7711;46.634;14.318;2023-08-21T00:16:59;20.13;;;18.17;;
15216;SDS011;7711;46.634;14.318;2023-08-21T00:19:26;19.30;;;17.50;;
15216;SDS011;7711;46.634;14.318;2023-08-21T00:21:53;19.92;;;17.95;;
15216;SDS011;7711;46.634;14.318;2023-08-21T00:24:20;20.05;;;18.15;;
15216;SDS011;7711;46.634;14.318;2023-08-21T00:26:47;20.55;;;18.38;;
15216;SDS011;7711;46.634;14.318;2023-08-21T00:29:14;20.67;;;18.73;;
15216;SDS011;7711;46.634;14.318;2023-08-21T00:31:41;27.63;;;18.25;;
15216;SDS011;7711;46.634;14.318;2023-08-21T00:34:09;18.88;;;17.10;;
15216;SDS011;7711;46.634;14.318;2023-08-21T00:36:36;20.17;;;18.15;;
15216;SDS011;7711;46.634;14.318;2023-08-21T00:39:03;19.85;;;18.02;;
15216;SDS011;7711;46.634;14.318;2023-08-21T00:41:30;20.38;;;18.48;;
15216;SDS011;7711;46.634;14.318;2023-08-21T00:43:59;19.58;;;17.67;;
15216;SDS011;7711;46.634;14.318;2023-08-21T00:46:26;20.38;;;18.38;;
15216;SDS011;7711;46.634;14.318;2023-08-21T00:48:53;19.58;;;17.80;;
15216;SDS011;7711;46.634;14.318;2023-08-21T00:51:21;21.02;;;18.90;;
15216;SDS011;7711;46.634;14.318;2023-08-21T00:53:48;20.33;;;17.75;;
15216;SDS011;7711;46.634;14.318;2023-08-21T00:56:15;20.05;;;17.67;;
15216;SDS011;7711;46.634;14.318;2023-08-21T00:58:43;18.98;;;17.23;;
15216;SDS011;7711;46.634;14.318;2023-08-21T01:01:10;20.98;;;18.85;;
15216;SDS011;7711;46.634;14.318;2023-08-21T01:03:38;21.17;;;18.98;;
15216;SDS011;7711;46.634;14.318;2023-08-21T01:06:05;19.30;;;17.48;;
15216;SDS011;7711;46.634;14.318;2023-08-21T01:08:41;20.90;;;18.58;;
15216;SDS011;7711;46.634;14.318;2023-08-21T01:11:18;20.20;;;18.30;;
15216;SDS011;7711;46.634;14.318;2023-08-21T01:13:48;21.38;;;19.27;;
15216;SDS011;7711;46.634;14.318;2023-08-21T01:16:22;20.65;;;18.58;;
15216;SDS011;7711;46.634;14.318;2023-08-21T01:18:50;21.17;;;19.17;;
15216;SDS011;7711;46.634;14.318;2023-08-21T01:21:20;21.67;;;19.35;;
15216;SDS011;7711;46.634;14.318;2023-08-21T01:23:48;21.05;;;19.05;;
15216;SDS011;7711;46.634;14.318;2023-08-21T01:26:15;21.63;;;19.63;;
15216;SDS011;7711;46.634;14.318;2023-08-21T01:28:42;21.45;;;19.45;;
15216;SDS011;7711;46.634;14.318;2023-08-21T01:31:10;21.83;;;19.25;;
15216;SDS011;7711;46.634;14.318;2023-08-21T01:33:42;22.48;;;20.27;;
15216;SDS011;7711;46.634;14.318;2023-08-21T01:36:12;21.95;;;19.83;;
15216;SDS011;7711;46.634;14.318;2023-08-21T01:38:40;21.13;;;18.45;;
15216;SDS011;7711;46.634;14.318;2023-08-21T01:41:08;21.95;;;19.70;;
15216;SDS011;7711;46.634;14.318;2023-08-21T01:43:35;20.90;;;18.80;;
15216;SDS011;7711;46.634;14.318;2023-08-21T01:46:02;20.98;;;18.55;;
15216;SDS011;7711;46.634;14.318;2023-08-21T01:48:29;21.70;;;19.40;;
15216;SDS011;7711;46.634;14.318;2023-08-21T01:50:56;20.75;;;18.55;;
15216;SDS011;7711;46.634;14.318;2023-08-21T01:53:23;21.80;;;19.60;;
15216;SDS011;7711;46.634;14.318;2023-08-21T01:55:50;21.50;;;19.30;;
15216;SDS011;7711;46.634;14.318;2023-08-21T01:58:18;21.35;;;19.25;;
15216;SDS011;7711;46.634;14.318;2023-08-21T02:00:46;20.75;;;18.75;;
15216;SDS011;7711;46.634;14.318;2023-08-21T02:03:13;21.35;;;19.20;;
15216;SDS011;7711;46.634;14.318;2023-08-21T02:05:40;22.13;;;19.80;;
15216;SDS011;7711;46.634;14.318;2023-08-21T02:08:11;21.83;;;19.73;;
15216;SDS011;7711;46.634;14.318;2023-08-21T02:10:46;21.20;;;19.00;;
15216;SDS011;7711;46.634;14.318;2023-08-21T02:13:14;20.77;;;18.67;;
15216;SDS011;7711;46.634;14.318;2023-08-21T02:15:43;21.83;;;19.63;;
15216;SDS011;7711;46.634;14.318;2023-08-21T02:18:10;21.60;;;19.45;;
15216;SDS011;7711;46.634;14.318;2023-08-21T02:20:36;21.52;;;19.45;;
15216;SDS011;7711;46.634;14.318;2023-08-21T02:23:04;21.33;;;19.17;;
15216;SDS011;7711;46.634;14.318;2023-08-21T02:25:31;20.80;;;18.80;;
15216;SDS011;7711;46.634;14.318;2023-08-21T02:27:58;21.20;;;19.25;;
15216;SDS011;7711;46.634;14.318;2023-08-21T02:30:25;21.40;;;19.27;;
15216;SDS011;7711;46.634;14.318;2023-08-21T02:32:53;21.33;;;19.30;;
15216;SDS011;7711;46.634;14.318;2023-08-21T02:35:20;21.83;;;19.63;;
15216;SDS011;7711;46.634;14.318;2023-08-21T02:37:47;21.30;;;19.15;;
15216;SDS011;7711;46.634;14.318;2023-08-21T02:40:14;22.05;;;19.80;;
15216;SDS011;7711;46.634;14.318;2023-08-21T02:42:41;22.42;;;20.23;;
15216;SDS011;7711;46.634;14.318;2023-08-21T02:45:09;22.38;;;20.13;;
15216;SDS011;7711;46.634;14.318;2023-08-21T02:47:36;22.60;;;20.30;;
15216;SDS011;7711;46.634;14.318;2023-08-21T02:50:05;23.63;;;21.33;;
15216;SDS011;7711;46.634;14.318;2023-08-21T02:52:33;22.67;;;20.42;;
15216;SDS011;7711;46.634;14.318;2023-08-21T02:55:01;23.17;;;20.92;;
15216;SDS011;7711;46.634;14.318;2023-08-21T02:57:28;23.13;;;20.58;;
15216;SDS011;7711;46.634;14.318;2023-08-21T02:59:55;22.55;;;20.42;;
15216;SDS011;7711;46.634;14.318;2023-08-21T03:02:22;21.67;;;19.63;;
15216;SDS011;7711;46.634;14.318;2023-08-21T03:04:49;22.67;;;20.48;;
15216;SDS011;7711;46.634;14.318;2023-08-21T03:07:18;22.48;;;20.40;;
15216;SDS011;7711;46.634;14.318;2023-08-21T03:09:45;22.83;;;20.67;;
15216;SDS011;7711;46.634;14.318;2023-08-21T03:12:14;23.15;;;20.95;;
15216;SDS011;7711;46.634;14.318;2023-08-21T03:14:41;23.40;;;21.08;;
15216;SDS011;7711;46.634;14.318;2023-08-21T03:17:08;23.25;;;20.95;;
15216;SDS011;7711;46.634;14.318;2023-08-21T03:19:35;23.42;;;21.13;;
15216;SDS011;7711;46.634;14.318;2023-08-21T03:22:02;25.13;;;22.05;;
15216;SDS011;7711;46.634;14.318;2023-08-21T03:24:31;23.50;;;21.20;;
15216;SDS011;7711;46.634;14.318;2023-08-21T03:26:58;23.17;;;21.08;;
15216;SDS011;7711;46.634;14.318;2023-08-21T03:29:25;23.00;;;20.55;;
15216;SDS011;7711;46.634;14.318;2023-08-21T03:31:52;23.38;;;20.60;;
15216;SDS011;7711;46.634;14.318;2023-08-21T03:34:20;23.25;;;20.90;;
15216;SDS011;7711;46.634;14.318;2023-08-21T03:36:47;24.23;;;21.33;;
15216;SDS011;7711;46.634;14.318;2023-08-21T03:39:14;25.13;;;22.63;;
15216;SDS011;7711;46.634;14.318;2023-08-21T03:41:42;24.65;;;21.98;;
15216;SDS011;7711;46.634;14.318;2023-08-21T03:44:09;23.02;;;20.83;;
15216;SDS011;7711;46.634;14.318;2023-08-21T03:46:36;24.05;;;20.98;;
15216;SDS011;7711;46.634;14.318;2023-08-21T03:49:03;23.10;;;20.95;;
15216;SDS011;7711;46.634;14.318;2023-08-21T03:51:30;24.17;;;20.95;;
15216;SDS011;7711;46.634;14.318;2023-08-21T03:53:57;23.17;;;20.77;;
15216;SDS011;7711;46.634;14.318;2023-08-21T03:56:24;23.38;;;20.98;;
15216;SDS011;7711;46.634;14.318;2023-08-21T03:58:52;23.85;;;21.45;;
15216;SDS011;7711;46.634;14.318;2023-08-21T04:01:19;22.15;;;19.85;;
15216;SDS011;7711;46.634;14.318;2023-08-21T04:03:46;23.90;;;21.38;;
15216;SDS011;7711;46.634;14.318;2023-08-21T04:06:13;23.75;;;21.33;;
15216;SDS011;7711;46.634;14.318;2023-08-21T04:08:40;23.90;;;21.45;;
15216;SDS011;7711;46.634;14.318;2023-08-21T04:11:07;22.45;;;20.25;;
15216;SDS011;7711;46.634;14.318;2023-08-21T04:13:34;24.65;;;22.15;;
15216;SDS011;7711;46.634;14.318;2023-08-21T04:16:02;24.25;;;21.83;;
15216;SDS011;7711;46.634;14.318;2023-08-21T04:18:30;23.73;;;21.13;;
15216;SDS011;7711;46.634;14.318;2023-08-21T04:20:56;25.73;;;21.95;;
15216;SDS011;7711;46.634;14.318;2023-08-21T04:23:23;23.52;;;21.20;;
15216;SDS011;7711;46.634;14.318;2023-08-21T04:25:50;23.20;;;20.95;;
15216;SDS011;7711;46.634;14.318;2023-08-21T04:28:17;26.20;;;23.38;;
15216;SDS011;7711;46.634;14.318;2023-08-21T04:30:44;27.65;;;22.30;;
15216;SDS011;7711;46.634;14.318;2023-08-21T04:33:12;23.30;;;21.00;;
15216;SDS011;7711;46.634;14.318;2023-08-21T04:35:39;24.20;;;21.33;;
15216;SDS011;7711;46.634;14.318;2023-08-21T04:38:06;24.88;;;21.55;;
15216;SDS011;7711;46.634;14.318;2023-08-21T04:40:33;28.48;;;21.33;;
15216;SDS011;7711;46.634;14.318;2023-08-21T04:43:00;24.40;;;20.77;;
15216;SDS011;7711;46.634;14.318;2023-08-21T04:45:27;21.20;;;19.13;;
15216;SDS011;7711;46.634;14.318;2023-08-21T04:47:54;23.55;;;21.17;;
15216;SDS011;7711;46.634;14.318;2023-08-21T04:50:22;23.95;;;21.45;;
15216;SDS011;7711;46.634;14.318;2023-08-21T04:52:49;24.25;;;21.27;;
15216;SDS011;7711;46.634;14.318;2023-08-21T04:55:16;23.67;;;21.10;;
15216;SDS011;7711;46.634;14.318;2023-08-21T04:57:44;23.83;;;21.15;;
15216;SDS011;7711;46.634;14.318;2023-08-21T05:00:11;23.13;;;20.40;;
15216;SDS011;7711;46.634;14.318;2023-08-21T05:02:40;22.13;;;20.02;;
15216;SDS011;7711;46.634;14.318;2023-08-21T05:05:07;23.20;;;20.73;;
15216;SDS011;7711;46.634;14.318;2023-08-21T05:07:36;23.15;;;20.83;;
15216;SDS011;7711;46.634;14.318;2023-08-21T05:10:03;21.83;;;19.42;;
15216;SDS011;7711;46.634;14.318;2023-08-21T05:12:31;21.95;;;19.60;;
15216;SDS011;7711;46.634;14.318;2023-08-21T05:14:58;22.63;;;20.13;;
15216;SDS011;7711;46.634;14.318;2023-08-21T05:17:25;26.42;;;20.88;;
15216;SDS011;7711;46.634;14.318;2023-08-21T05:19:52;21.65;;;19.27;;
15216;SDS011;7711;46.634;14.318;2023-08-21T05:22:19;20.73;;;18.33;;
15216;SDS011;7711;46.634;14.318;2023-08-21T05:24:47;25.10;;;19.00;;
15216;SDS011;7711;46.634;14.318;2023-08-21T05:27:14;21.50;;;19.20;;
15216;SDS011;7711;46.634;14.318;2023-08-21T05:29:42;23.20;;;17.58;;
15216;SDS011;7711;46.634;14.318;2023-08-21T05:32:09;33.15;;;19.25;;
15216;SDS011;7711;46.634;14.318;2023-08-21T05:34:35;28.80;;;20.23;;
15216;SDS011;7711;46.634;14.318;2023-08-21T05:37:02;21.10;;;18.63;;
15216;SDS011;7711;46.634;14.318;2023-08-21T05:39:30;20.00;;;18.00;;
15216;SDS011;7711;46.634;14.318;2023-08-21T05:41:58;19.90;;;17.98;;
15216;SDS011;7711;46.634;14.318;2023-08-21T05:44:25;19.83;;;17.63;;
15216;SDS011;7711;46.634;14.318;2023-08-21T05:46:53;22.00;;;18.20;;
15216;SDS011;7711;46.634;14.318;2023-08-21T05:49:20;21.00;;;18.05;;
15216;SDS011;7711;46.634;14.318;2023-08-21T05:51:47;19.33;;;17.52;;
15216;SDS011;7711;46.634;14.318;2023-08-21T05:54:14;20.40;;;18.30;;
15216;SDS011;7711;46.634;14.318;2023-08-21T05:56:41;19.88;;;17.92;;
15216;SDS011;7711;46.634;14.318;2023-08-21T05:59:10;20.20;;;18.25;;
15216;SDS011;7711;46.634;14.318;2023-08-21T06:01:37;19.00;;;17.30;;
15216;SDS011;7711;46.634;14.318;2023-08-21T06:04:04;20.17;;;18.08;;
15216;SDS011;7711;46.634;14.318;2023-08-21T06:06:31;19.75;;;17.80;;
15216;SDS011;7711;46.634;14.318;2023-08-21T06:08:58;20.73;;;18.40;;
15216;SDS011;7711;46.634;14.318;2023-08-21T06:11:26;19.95;;;18.02;;
15216;SDS011;7711;46.634;14.318;2023-08-21T06:13:52;19.27;;;17.30;;
15216;SDS011;7711;46.634;14.318;2023-08-21T06:16:21;19.08;;;17.38;;
15216;SDS011;7711;46.634;14.318;2023-08-21T06:18:48;18.55;;;16.88;;
15216;SDS011;7711;46.634;14.318;2023-08-21T06:21:15;19.20;;;17.33;;
15216;SDS011;7711;46.634;14.318;2023-08-21T06:23:42;19.60;;;17.70;;
15216;SDS011;7711;46.634;14.318;2023-08-21T06:26:09;19.50;;;17.60;;
15216;SDS011;7711;46.634;14.318;2023-08-21T06:28:36;20.48;;;17.33;;
15216;SDS011;7711;46.634;14.318;2023-08-21T06:31:03;19.30;;;17.10;;
15216;SDS011;7711;46.634;14.318;2023-08-21T06:33:33;20.58;;;18.35;;
15216;SDS011;7711;46.634;14.318;2023-08-21T06:36:01;19.77;;;17.58;;
15216;SDS011;7711;46.634;14.318;2023-08-21T06:38:28;19.98;;;18.08;;
15216;SDS011;7711;46.634;14.318;2023-08-21T06:40:55;19.33;;;17.63;;
15216;SDS011;7711;46.634;14.318;2023-08-21T06:43:22;20.45;;;17.90;;
15216;SDS011;7711;46.634;14.318;2023-08-21T06:45:49;20.33;;;18.23;;
15216;SDS011;7711;46.634;14.318;2023-08-21T06:48:16;20.08;;;17.95;;
15216;SDS011;7711;46.634;14.318;2023-08-21T06:50:45;19.05;;;17.25;;
15216;SDS011;7711;46.634;14.318;2023-08-21T06:53:12;18.10;;;16.40;;
15216;SDS011;7711;46.634;14.318;2023-08-21T06:55:38;18.13;;;16.33;;
15216;SDS011;7711;46.634;14.318;2023-08-21T06:58:06;19.30;;;17.50;;
15216;SDS011;7711;46.634;14.318;2023-08-21T07:00:33;19.67;;;16.25;;
15216;SDS011;7711;46.634;14.318;2023-08-21T07:03:00;17.25;;;15.60;;
15216;SDS011;7711;46.634;14.318;2023-08-21T07:05:28;19.00;;;17.02;;
15216;SDS011;7711;46.634;14.318;2023-08-21T07:07:56;17.80;;;16.20;;
15216;SDS011;7711;46.634;14.318;2023-08-21T07:10:23;21.35;;;15.18;;
15216;SDS011;7711;46.634;14.318;2023-08-21T07:12:50;17.33;;;15.63;;
15216;SDS011;7711;46.634;14.318;2023-08-21T07:15:19;18.60;;;16.23;;
15216;SDS011;7711;46.634;14.318;2023-08-21T07:17:46;17.55;;;15.85;;
15216;SDS011;7711;46.634;14.318;2023-08-21T07:20:13;16.85;;;15.35;;
15216;SDS011;7711;46.634;14.318;2023-08-21T07:22:40;16.92;;;15.23;;
15216;SDS011;7711;46.634;14.318;2023-08-21T07:25:08;17.83;;;16.13;;
15216;SDS011;7711;46.634;14.318;2023-08-21T07:27:35;16.85;;;15.25;;
15216;SDS011;7711;46.634;14.318;2023-08-21T07:30:02;18.58;;;16.63;;
15216;SDS011;7711;46.634;14.318;2023-08-21T07:32:30;18.30;;;16.58;;
15216;SDS011;7711;46.634;14.318;2023-08-21T07:34:57;18.50;;;16.80;;
15216;SDS011;7711;46.634;14.318;2023-08-21T07:37:24;18.73;;;17.02;;
15216;SDS011;7711;46.634;14.318;2023-08-21T07:39:51;18.33;;;16.52;;
15216;SDS011;7711;46.634;14.318;2023-08-21T07:42:23;18.00;;;16.10;;
15216;SDS011;7711;46.634;14.318;2023-08-21T07:44:50;17.55;;;15.95;;
15216;SDS011;7711;46.634;14.318;2023-08-21T07:47:17;18.88;;;17.10;;
15216;SDS011;7711;46.634;14.318;2023-08-21T07:49:44;18.52;;;16.92;;
15216;SDS011;7711;46.634;14.318;2023-08-21T07:52:11;17.80;;;16.10;;
15216;SDS011;7711;46.634;14.318;2023-08-21T07:54:38;17.98;;;16.08;;
15216;SDS011;7711;46.634;14.318;2023-08-21T07:57:04;18.25;;;16.60;;
15216;SDS011;7711;46.634;14.318;2023-08-21T07:59:33;18.05;;;16.30;;
15216;SDS011;7711;46.634;14.318;2023-08-21T08:02:01;17.98;;;16.20;;
15216;SDS011;7711;46.634;14.318;2023-08-21T08:04:29;17.42;;;15.73;;
15216;SDS011;7711;46.634;14.318;2023-08-21T08:06:56;18.25;;;16.25;;
15216;SDS011;7711;46.634;14.318;2023-08-21T08:09:23;18.63;;;16.67;;
15216;SDS011;7711;46.634;14.318;2023-08-21T08:11:50;18.13;;;16.38;;
15216;SDS011;7711;46.634;14.318;2023-08-21T08:14:17;18.70;;;16.67;;
15216;SDS011;7711;46.634;14.318;2023-08-21T08:16:45;18.33;;;16.60;;
15216;SDS011;7711;46.634;14.318;2023-08-21T08:19:12;18.20;;;16.48;;
15216;SDS011;7711;46.634;14.318;2023-08-21T08:21:39;18.67;;;16.77;;
15216;SDS011;7711;46.634;14.318;2023-08-21T08:24:06;17.92;;;16.33;;
15216;SDS011;7711;46.634;14.318;2023-08-21T08:26:33;17.55;;;15.80;;
15216;SDS011;7711;46.634;14.318;2023-08-21T08:29:00;16.90;;;15.30;;
15216;SDS011;7711;46.634;14.318;2023-08-21T08:31:27;19.00;;;17.30;;
15216;SDS011;7711;46.634;14.318;2023-08-21T08:33:55;17.40;;;15.73;;
15216;SDS011;7711;46.634;14.318;2023-08-21T08:36:22;18.05;;;16.45;;
15216;SDS011;7711;46.634;14.318;2023-08-21T08:38:49;18.25;;;16.45;;
15216;SDS011;7711;46.634;14.318;2023-08-21T08:41:18;17.65;;;15.95;;
15216;SDS011;7711;46.634;14.318;2023-08-21T08:43:53;18.02;;;16.33;;
15216;SDS011;7711;46.634;14.318;2023-08-21T08:46:23;18.15;;;16.55;;
15216;SDS011;7711;46.634;14.318;2023-08-21T08:48:50;18.27;;;16.15;;
15216;SDS011;7711;46.634;14.318;2023-08-21T08:51:19;18.90;;;16.88;;
15216;SDS011;7711;46.634;14.318;2023-08-21T08:53:47;17.42;;;15.93;;
15216;SDS011;7711;46.634;14.318;2023-08-21T08:56:14;17.45;;;15.95;;
15216;SDS011;7711;46.634;14.318;2023-08-21T08:58:41;17.23;;;15.35;;
15216;SDS011;7711;46.634;14.318;2023-08-21T09:01:08;17.88;;;15.90;;
15216;SDS011;7711;46.634;14.318;2023-08-21T09:03:36;17.58;;;15.27;;
15216;SDS011;7711;46.634;14.318;2023-08-21T09:06:03;15.98;;;14.32;;
15216;SDS011;7711;46.634;14.318;2023-08-21T09:08:31;14.30;;;13.10;;
15216;SDS011;7711;46.634;14.318;2023-08-21T09:11:00;14.90;;;13.60;;
15216;SDS011;7711;46.634;14.318;2023-08-21T09:13:28;14.18;;;12.88;;
15216;SDS011;7711;46.634;14.318;2023-08-21T09:15:58;13.25;;;11.95;;
15216;SDS011;7711;46.634;14.318;2023-08-21T09:18:25;13.88;;;12.57;;
15216;SDS011;7711;46.634;14.318;2023-08-21T09:20:52;13.82;;;12.40;;
15216;SDS011;7711;46.634;14.318;2023-08-21T09:23:19;14.05;;;12.85;;
15216;SDS011;7711;46.634;14.318;2023-08-21T09:25:48;14.07;;;12.75;;
15216;SDS011;7711;46.634;14.318;2023-08-21T09:28:17;14.77;;;13.02;;
15216;SDS011;7711;46.634;14.318;2023-08-21T09:30:49;14.85;;;13.55;;
15216;SDS011;7711;46.634;14.318;2023-08-21T09:33:17;14.60;;;13.40;;
15216;SDS011;7711;46.634;14.318;2023-08-21T09:35:45;15.15;;;13.85;;
15216;SDS011;7711;46.634;14.318;2023-08-21T09:38:12;14.85;;;13.55;;
15216;SDS011;7711;46.634;14.318;2023-08-21T09:40:39;14.63;;;13.43;;
15216;SDS011;7711;46.634;14.318;2023-08-21T09:43:09;14.68;;;13.18;;
15216;SDS011;7711;46.634;14.318;2023-08-21T09:45:37;15.32;;;13.80;;
15216;SDS011;7711;46.634;14.318;2023-08-21T09:48:05;15.55;;;13.80;;
15216;SDS011;7711;46.634;14.318;2023-08-21T09:50:32;14.23;;;13.02;;
15216;SDS011;7711;46.634;14.318;2023-08-21T09:53:01;14.80;;;13.35;;
15216;SDS011;7711;46.634;14.318;2023-08-21T09:55:29;14.80;;;13.27;;
15216;SDS011;7711;46.634;14.318;2023-08-21T09:57:59;14.90;;;13.50;;
15216;SDS011;7711;46.634;14.318;2023-08-21T10:00:29;14.65;;;13.40;;
15216;SDS011;7711;46.634;14.318;2023-08-21T10:02:59;14.60;;;13.20;;
15216;SDS011;7711;46.634;14.318;2023-08-21T10:05:28;15.23;;;13.88;;
15216;SDS011;7711;46.634;14.318;2023-08-21T10:07:56;15.18;;;13.75;;
15216;SDS011;7711;46.634;14.318;2023-08-21T10:10:26;15.00;;;13.43;;
15216;SDS011;7711;46.634;14.318;2023-08-21T10:12:56;15.80;;;14.23;;
15216;SDS011;7711;46.634;14.318;2023-08-21T10:15:23;15.23;;;13.82;;
15216;SDS011;7711;46.634;14.318;2023-08-21T10:17:52;15.45;;;13.88;;
15216;SDS011;7711;46.634;14.318;2023-08-21T10:20:20;16.20;;;14.70;;
15216;SDS011;7711;46.634;14.318;2023-08-21T10:22:49;15.07;;;13.70;;
15216;SDS011;7711;46.634;14.318;2023-08-21T10:25:19;14.75;;;13.45;;
15216;SDS011;7711;46.634;14.318;2023-08-21T10:27:49;14.50;;;13.25;;
15216;SDS011;7711;46.634;14.318;2023-08-21T10:30:19;16.23;;;14.73;;
15216;SDS011;7711;46.634;14.318;2023-08-21T10:32:47;16.50;;;13.60;;
15216;SDS011;7711;46.634;14.318;2023-08-21T10:35:17;15.27;;;13.88;;
15216;SDS011;7711;46.634;14.318;2023-08-21T10:40:36;17.38;;;13.43;;
15216;SDS011;7711;46.634;14.318;2023-08-21T10:43:03;14.88;;;13.68;;
15216;SDS011;7711;46.634;14.318;2023-08-21T10:45:30;14.68;;;13.38;;
15216;SDS011;7711;46.634;14.318;2023-08-21T10:47:57;15.45;;;13.85;;
15216;SDS011;7711;46.634;14.318;2023-08-21T10:50:26;15.35;;;13.85;;
15216;SDS011;7711;46.634;14.318;2023-08-21T10:52:53;15.00;;;13.60;;
15216;SDS011;7711;46.634;14.318;2023-08-21T10:55:20;14.50;;;13.10;;
15216;SDS011;7711;46.634;14.318;2023-08-21T10:57:47;15.25;;;13.95;;
15216;SDS011;7711;46.634;14.318;2023-08-21T11:00:17;15.52;;;13.90;;
15216;SDS011;7711;46.634;14.318;2023-08-21T11:02:46;14.70;;;13.30;;
15216;SDS011;7711;46.634;14.318;2023-08-21T11:05:15;14.65;;;13.40;;
15216;SDS011;7711;46.634;14.318;2023-08-21T11:07:44;13.77;;;12.65;;
15216;SDS011;7711;46.634;14.318;2023-08-21T11:10:13;14.48;;;13.18;;
15216;SDS011;7711;46.634;14.318;2023-08-21T11:12:47;16.20;;;12.88;;
15216;SDS011;7711;46.634;14.318;2023-08-21T11:15:16;14.73;;;13.25;;
15216;SDS011;7711;46.634;14.318;2023-08-21T11:17:50;14.02;;;12.75;;
15216;SDS011;7711;46.634;14.318;2023-08-21T11:20:17;14.32;;;13.05;;
15216;SDS011;7711;46.634;14.318;2023-08-21T11:22:46;14.18;;;12.60;;
15216;SDS011;7711;46.634;14.318;2023-08-21T11:25:14;13.25;;;12.15;;
15216;SDS011;7711;46.634;14.318;2023-08-21T11:27:41;15.85;;;11.77;;
15216;SDS011;7711;46.634;14.318;2023-08-21T11:30:10;12.93;;;11.65;;
15216;SDS011;7711;46.634;14.318;2023-08-21T11:32:38;13.60;;;12.30;;
15216;SDS011;7711;46.634;14.318;2023-08-21T11:35:06;14.00;;;12.70;;
15216;SDS011;7711;46.634;14.318;2023-08-21T11:37:34;14.75;;;11.80;;
15216;SDS011;7711;46.634;14.318;2023-08-21T11:40:11;15.68;;;12.88;;
15216;SDS011;7711;46.634;14.318;2023-08-21T11:42:39;13.73;;;12.40;;
15216;SDS011;7711;46.634;14.318;2023-08-21T11:45:06;14.05;;;12.63;;
15216;SDS011;7711;46.634;14.318;2023-08-21T11:47:36;12.77;;;11.70;;
15216;SDS011;7711;46.634;14.318;2023-08-21T11:50:03;12.88;;;11.65;;
15216;SDS011;7711;46.634;14.318;2023-08-21T11:52:31;12.52;;;11.30;;
15216;SDS011;7711;46.634;14.318;2023-08-21T11:54:58;13.07;;;11.98;;
15216;SDS011;7711;46.634;14.318;2023-08-21T11:57:26;12.15;;;10.98;;
15216;SDS011;7711;46.634;14.318;2023-08-21T11:59:55;11.93;;;10.73;;
15216;SDS011;7711;46.634;14.318;2023-08-21T12:02:23;12.38;;;11.10;;
15216;SDS011;7711;46.634;14.318;2023-08-21T12:04:52;12.48;;;11.38;;
15216;SDS011;7711;46.634;14.318;2023-08-21T12:07:19;12.50;;;11.40;;
15216;SDS011;7711;46.634;14.318;2023-08-21T12:09:47;12.63;;;11.55;;
15216;SDS011;7711;46.634;14.318;2023-08-21T12:12:14;12.52;;;11.50;;
15216;SDS011;7711;46.634;14.318;2023-08-21T12:14:43;12.05;;;10.88;;
15216;SDS011;7711;46.634;14.318;2023-08-21T12:17:10;12.20;;;10.93;;
15216;SDS011;7711;46.634;14.318;2023-08-21T12:19:37;10.82;;;9.82;;
15216;SDS011;7711;46.634;14.318;2023-08-21T12:22:04;10.13;;;9.23;;
15216;SDS011;7711;46.634;14.318;2023-08-21T12:24:31;10.63;;;9.60;;
15216;SDS011;7711;46.634;14.318;2023-08-21T12:26:58;8.70;;;7.90;;
15216;SDS011;7711;46.634;14.318;2023-08-21T12:29:25;9.25;;;8.23;;
15216;SDS011;7711;46.634;14.318;2023-08-21T12:31:54;8.55;;;7.25;;
15216;SDS011;7711;46.634;14.318;2023-08-21T12:34:21;10.00;;;7.63;;
15216;SDS011;7711;46.634;14.318;2023-08-21T12:36:49;7.88;;;7.07;;
15216;SDS011;7711;46.634;14.318;2023-08-21T12:39:16;9.07;;;8.18;;
15216;SDS011;7711;46.634;14.318;2023-08-21T12:41:44;9.30;;;8.35;;
15216;SDS011;7711;46.634;14.318;2023-08-21T12:44:12;8.77;;;7.15;;
15216;SDS011;7711;46.634;14.318;2023-08-21T12:46:38;8.02;;;7.32;;
15216;SDS011;7711;46.634;14.318;2023-08-21T12:49:07;8.88;;;7.80;;
15216;SDS011;7711;46.634;14.318;2023-08-21T12:51:34;8.15;;;6.75;;
15216;SDS011;7711;46.634;14.318;2023-08-21T12:54:01;7.32;;;6.63;;
15216;SDS011;7711;46.634;14.318;2023-08-21T12:56:28;7.13;;;6.45;;
15216;SDS011;7711;46.634;14.318;2023-08-21T12:58:55;7.28;;;6.53;;
15216;SDS011;7711;46.634;14.318;2023-08-21T13:01:22;7.50;;;6.90;;
15216;SDS011;7711;46.634;14.318;2023-08-21T13:03:49;10.60;;;7.40;;
15216;SDS011;7711;46.634;14.318;2023-08-21T13:06:17;7.97;;;6.65;;
15216;SDS011;7711;46.634;14.318;2023-08-21T13:08:44;12.30;;;7.32;;
15216;SDS011;7711;46.634;14.318;2023-08-21T13:11:11;6.90;;;6.28;;
15216;SDS011;7711;46.634;14.318;2023-08-21T13:13:38;7.30;;;6.60;;
15216;SDS011;7711;46.634;14.318;2023-08-21T13:16:05;6.82;;;6.22;;
15216;SDS011;7711;46.634;14.318;2023-08-21T13:18:32;6.82;;;6.18;;
15216;SDS011;7711;46.634;14.318;2023-08-21T13:20:59;6.65;;;6.00;;
15216;SDS011;7711;46.634;14.318;2023-08-21T13:23:28;6.03;;;5.63;;
15216;SDS011;7711;46.634;14.318;2023-08-21T13:25:56;7.55;;;6.60;;
15216;SDS011;7711;46.634;14.318;2023-08-21T13:28:23;7.25;;;6.20;;
15216;SDS011;7711;46.634;14.318;2023-08-21T13:30:50;8.88;;;6.65;;
15216;SDS011;7711;46.634;14.318;2023-08-21T13:33:18;6.63;;;6.00;;
15216;SDS011;7711;46.634;14.318;2023-08-21T13:35:45;6.65;;;6.07;;
15216;SDS011;7711;46.634;14.318;2023-08-21T13:38:12;7.63;;;5.90;;
15216;SDS011;7711;46.634;14.318;2023-08-21T13:40:40;6.25;;;5.72;;
15216;SDS011;7711;46.634;14.318;2023-08-21T13:43:07;6.47;;;5.97;;
15216;SDS011;7711;46.634;14.318;2023-08-21T13:45:37;6.50;;;5.90;;
15216;SDS011;7711;46.634;14.318;2023-08-21T13:48:05;6.57;;;5.97;;
15216;SDS011;7711;46.634;14.318;2023-08-21T13:50:33;6.75;;;6.15;;
15216;SDS011;7711;46.634;14.318;2023-08-21T13:52:59;6.20;;;5.60;;
15216;SDS011;7711;46.634;14.318;2023-08-21T13:55:27;7.43;;;6.35;;
15216;SDS011;7711;46.634;14.318;2023-08-21T13:57:55;7.57;;;6.65;;
15216;SDS011;7711;46.634;14.318;2023-08-21T14:00:22;7.07;;;6.45;;
15216;SDS011;7711;46.634;14.318;2023-08-21T14:02:49;7.63;;;6.60;;
15216;SDS011;7711;46.634;14.318;2023-08-21T14:05:16;6.15;;;5.70;;
15216;SDS011;7711;46.634;14.318;2023-08-21T14:07:43;6.68;;;5.85;;
15216;SDS011;7711;46.634;14.318;2023-08-21T14:10:11;6.65;;;6.05;;
15216;SDS011;7711;46.634;14.318;2023-08-21T14:12:39;6.22;;;5.72;;
15216;SDS011;7711;46.634;14.318;2023-08-21T14:15:08;6.20;;;5.80;;
15216;SDS011;7711;46.634;14.318;2023-08-21T14:17:35;5.60;;;5.10;;
15216;SDS011;7711;46.634;14.318;2023-08-21T14:20:02;6.45;;;5.82;;
15216;SDS011;7711;46.634;14.318;2023-08-21T14:22:30;5.75;;;5.20;;
15216;SDS011;7711;46.634;14.318;2023-08-21T14:24:57;7.35;;;5.95;;
15216;SDS011;7711;46.634;14.318;2023-08-21T14:27:24;6.55;;;5.90;;
15216;SDS011;7711;46.634;14.318;2023-08-21T14:29:51;7.63;;;6.07;;
15216;SDS011;7711;46.634;14.318;2023-08-21T14:32:19;6.78;;;6.10;;